sensor_id;sensor_type;location;lat;lon;timestamp;pressure;altitude;pressure_sealevel;temperature;humidity
60055;BME280;45930;53.514;55.904;2024-01-30T00:00:42;12344.44;;;-149.77;100.00
60055;BME280;45930;53.514;55.904;2024-01-30T00:01:43;12093.28;;;-149.77;100.00
60055;BME280;45930;53.514;55.904;2024-01-30T00:02:43;11842.16;;;-149.77;100.00
60055;BME280;45930;53.514;55.904;2024-01-30T00:03:46;11842.16;;;-149.77;100.00
60055;BME280;45930;53.514;55.904;2024-01-30T00:04:47;11591.03;;;-149.77;100.00
60055;BME280;45930;53.514;55.904;2024-01-30T00:05:47;11842.16;;;-149.77;100.00
60055;BME280;45930;53.514;55.904;2024-01-30T00:06:48;11088.84;;;-149.77;100.00
60055;BME280;45930;53.514;55.904;2024-01-30T00:07:49;10837.78;;;-149.77;100.00
60055;BME280;45930;53.514;55.904;2024-01-30T00:08:50;10586.72;;;-149.77;100.00
60055;BME280;45930;53.514;55.904;2024-01-30T00:09:51;10837.78;;;-149.77;100.00
60055;BME280;45930;53.514;55.904;2024-01-30T00:10:52;11088.84;;;-149.77;100.00
60055;BME280;45930;53.514;55.904;2024-01-30T00:11:55;11339.94;;;-149.77;100.00
60055;BME280;45930;53.514;55.904;2024-01-30T00:12:55;11591.03;;;-149.77;100.00
60055;BME280;45930;53.514;55.904;2024-01-30T00:13:56;11339.94;;;-149.77;100.00
60055;BME280;45930;53.514;55.904;2024-01-30T00:14:57;11088.84;;;-149.77;100.00
60055;BME280;45930;53.514;55.904;2024-01-30T00:15:58;11339.94;;;-149.77;100.00
60055;BME280;45930;53.514;55.904;2024-01-30T00:16:59;11591.03;;;-149.77;100.00
60055;BME280;45930;53.514;55.904;2024-01-30T00:17:59;11339.94;;;-149.77;100.00
60055;BME280;45930;53.514;55.904;2024-01-30T00:19:00;11088.84;;;-149.77;100.00
60055;BME280;45930;53.514;55.904;2024-01-30T00:20:03;10837.78;;;-149.77;100.00
60055;BME280;45930;53.514;55.904;2024-01-30T00:21:05;10586.72;;;-149.77;100.00
60055;BME280;45930;53.514;55.904;2024-01-30T00:22:06;10586.72;;;-149.77;100.00
60055;BME280;45930;53.514;55.904;2024-01-30T00:23:08;10837.78;;;-149.77;100.00
60055;BME280;45930;53.514;55.904;2024-01-30T00:24:09;10586.72;;;-149.77;100.00
60055;BME280;45930;53.514;55.904;2024-01-30T00:25:09;10837.78;;;-149.77;100.00
60055;BME280;45930;53.514;55.904;2024-01-30T00:26:10;11088.84;;;-149.77;100.00
60055;BME280;45930;53.514;55.904;2024-01-30T00:27:11;11842.16;;;-149.77;100.00
60055;BME280;45930;53.514;55.904;2024-01-30T00:28:12;12093.28;;;-149.77;100.00
60055;BME280;45930;53.514;55.904;2024-01-30T00:29:13;12093.28;;;-149.77;100.00
60055;BME280;45930;53.514;55.904;2024-01-30T00:30:20;12344.44;;;-149.77;100.00
60055;BME280;45930;53.514;55.904;2024-01-30T00:31:21;12846.81;;;-149.77;100.00
60055;BME280;45930;53.514;55.904;2024-01-30T00:32:21;13098.00;;;-149.77;100.00
60055;BME280;45930;53.514;55.904;2024-01-30T00:33:23;13600.47;;;-149.77;100.00
60055;BME280;45930;53.514;55.904;2024-01-30T00:34:24;14102.97;;;-149.77;100.00
60055;BME280;45930;53.514;55.904;2024-01-30T00:35:25;14354.25;;;-149.77;100.00
60055;BME280;45930;53.514;55.904;2024-01-30T00:36:25;14605.56;;;-149.77;100.00
60055;BME280;45930;53.514;55.904;2024-01-30T00:37:26;14856.88;;;-149.77;100.00
60055;BME280;45930;53.514;55.904;2024-01-30T00:38:27;15108.22;;;-149.77;100.00
60055;BME280;45930;53.514;55.904;2024-01-30T00:39:28;15108.22;;;-149.77;100.00
60055;BME280;45930;53.514;55.904;2024-01-30T00:40:29;15359.56;;;-149.77;100.00
60055;BME280;45930;53.514;55.904;2024-01-30T00:41:29;15610.94;;;-149.77;100.00
60055;BME280;45930;53.514;55.904;2024-01-30T00:42:30;15359.56;;;-149.77;100.00
60055;BME280;45930;53.514;55.904;2024-01-30T00:43:31;15359.56;;;-149.77;100.00
60055;BME280;45930;53.514;55.904;2024-01-30T00:44:35;15610.94;;;-149.77;100.00
60055;BME280;45930;53.514;55.904;2024-01-30T00:45:36;15359.56;;;-149.77;100.00
60055;BME280;45930;53.514;55.904;2024-01-30T00:46:36;15108.22;;;-149.77;100.00
60055;BME280;45930;53.514;55.904;2024-01-30T00:47:37;15359.56;;;-149.77;100.00
60055;BME280;45930;53.514;55.904;2024-01-30T00:48:38;15359.56;;;-149.77;100.00
60055;BME280;45930;53.514;55.904;2024-01-30T00:49:38;15108.22;;;-149.77;100.00
60055;BME280;45930;53.514;55.904;2024-01-30T00:50:39;15108.22;;;-149.77;100.00
60055;BME280;45930;53.514;55.904;2024-01-30T00:51:40;15359.56;;;-149.77;100.00
60055;BME280;45930;53.514;55.904;2024-01-30T00:52:41;15359.56;;;-149.77;100.00
60055;BME280;45930;53.514;55.904;2024-01-30T00:53:42;15108.22;;;-149.77;100.00
60055;BME280;45930;53.514;55.904;2024-01-30T00:54:43;14856.88;;;-149.77;100.00
60055;BME280;45930;53.514;55.904;2024-01-30T00:55:44;14605.56;;;-149.77;100.00
60055;BME280;45930;53.514;55.904;2024-01-30T00:56:44;14605.56;;;-149.77;100.00
60055;BME280;45930;53.514;55.904;2024-01-30T00:57:45;14856.88;;;-149.77;100.00
60055;BME280;45930;53.514;55.904;2024-01-30T00:58:46;15108.22;;;-149.77;100.00
60055;BME280;45930;53.514;55.904;2024-01-30T00:59:47;14354.25;;;-149.77;100.00
60055;BME280;45930;53.514;55.904;2024-01-30T01:00:47;14102.97;;;-149.77;100.00
60055;BME280;45930;53.514;55.904;2024-01-30T01:01:48;13851.72;;;-149.77;100.00
60055;BME280;45930;53.514;55.904;2024-01-30T01:02:49;13600.47;;;-149.77;100.00
60055;BME280;45930;53.514;55.904;2024-01-30T01:03:50;13098.00;;;-149.77;100.00
60055;BME280;45930;53.514;55.904;2024-01-30T01:04:51;12846.81;;;-149.77;100.00
60055;BME280;45930;53.514;55.904;2024-01-30T01:05:51;12344.44;;;-149.77;100.00
60055;BME280;45930;53.514;55.904;2024-01-30T01:06:52;11842.16;;;-149.77;100.00
60055;BME280;45930;53.514;55.904;2024-01-30T01:07:53;12093.28;;;-149.77;100.00
60055;BME280;45930;53.514;55.904;2024-01-30T01:08:54;11842.16;;;-149.77;100.00
60055;BME280;45930;53.514;55.904;2024-01-30T01:09:54;11591.03;;;-149.77;100.00
60055;BME280;45930;53.514;55.904;2024-01-30T01:10:55;11339.94;;;-149.77;100.00
60055;BME280;45930;53.514;55.904;2024-01-30T01:11:56;11339.94;;;-149.77;100.00
60055;BME280;45930;53.514;55.904;2024-01-30T01:12:56;11339.94;;;-149.77;100.00
60055;BME280;45930;53.514;55.904;2024-01-30T01:13:57;11339.94;;;-149.77;100.00
60055;BME280;45930;53.514;55.904;2024-01-30T01:14:58;11339.94;;;-149.77;100.00
60055;BME280;45930;53.514;55.904;2024-01-30T01:15:59;11339.94;;;-149.77;100.00
60055;BME280;45930;53.514;55.904;2024-01-30T01:16:59;11088.84;;;-149.77;100.00
60055;BME280;45930;53.514;55.904;2024-01-30T01:18:00;11339.94;;;-149.77;100.00
60055;BME280;45930;53.514;55.904;2024-01-30T01:19:01;12093.28;;;-149.77;100.00
60055;BME280;45930;53.514;55.904;2024-01-30T01:20:02;12595.63;;;-149.77;100.00
60055;BME280;45930;53.514;55.904;2024-01-30T01:21:04;13851.72;;;-149.77;100.00
60055;BME280;45930;53.514;55.904;2024-01-30T01:22:05;13851.72;;;-149.77;100.00
60055;BME280;45930;53.514;55.904;2024-01-30T01:23:06;14102.97;;;-149.77;100.00
60055;BME280;45930;53.514;55.904;2024-01-30T01:24:06;13851.72;;;-149.77;100.00
60055;BME280;45930;53.514;55.904;2024-01-30T01:25:07;13851.72;;;-149.77;100.00
60055;BME280;45930;53.514;55.904;2024-01-30T01:26:11;13851.72;;;-149.77;100.00
60055;BME280;45930;53.514;55.904;2024-01-30T01:27:12;14102.97;;;-149.77;100.00
60055;BME280;45930;53.514;55.904;2024-01-30T01:28:12;13851.72;;;-149.77;100.00
60055;BME280;45930;53.514;55.904;2024-01-30T01:29:13;13349.22;;;-149.77;100.00
60055;BME280;45930;53.514;55.904;2024-01-30T01:30:16;13098.00;;;-149.77;100.00
60055;BME280;45930;53.514;55.904;2024-01-30T01:31:21;13851.72;;;-149.77;100.00
60055;BME280;45930;53.514;55.904;2024-01-30T01:32:25;13600.47;;;-149.77;100.00
60055;BME280;45930;53.514;55.904;2024-01-30T01:33:26;13349.22;;;-149.77;100.00
60055;BME280;45930;53.514;55.904;2024-01-30T01:34:27;13098.00;;;-149.77;100.00
60055;BME280;45930;53.514;55.904;2024-01-30T01:35:28;13098.00;;;-149.77;100.00
60055;BME280;45930;53.514;55.904;2024-01-30T01:36:28;12846.81;;;-149.77;100.00
60055;BME280;45930;53.514;55.904;2024-01-30T01:37:29;12595.63;;;-149.77;100.00
60055;BME280;45930;53.514;55.904;2024-01-30T01:38:30;12595.63;;;-149.77;100.00
60055;BME280;45930;53.514;55.904;2024-01-30T01:39:31;12344.44;;;-149.77;100.00
60055;BME280;45930;53.514;55.904;2024-01-30T01:40:31;12344.44;;;-149.77;100.00
60055;BME280;45930;53.514;55.904;2024-01-30T01:41:33;12344.44;;;-149.77;100.00
60055;BME280;45930;53.514;55.904;2024-01-30T01:42:34;12093.28;;;-149.77;100.00
60055;BME280;45930;53.514;55.904;2024-01-30T01:43:36;11591.03;;;-149.77;100.00
60055;BME280;45930;53.514;55.904;2024-01-30T01:44:38;11591.03;;;-149.77;100.00
60055;BME280;45930;53.514;55.904;2024-01-30T01:45:39;11842.16;;;-149.77;100.00
60055;BME280;45930;53.514;55.904;2024-01-30T01:46:40;11842.16;;;-149.77;100.00
60055;BME280;45930;53.514;55.904;2024-01-30T01:47:41;12093.28;;;-149.77;100.00
60055;BME280;45930;53.514;55.904;2024-01-30T01:48:42;11842.16;;;-149.77;100.00
60055;BME280;45930;53.514;55.904;2024-01-30T01:49:43;11591.03;;;-149.77;100.00
60055;BME280;45930;53.514;55.904;2024-01-30T01:50:44;11339.94;;;-149.77;100.00
60055;BME280;45930;53.514;55.904;2024-01-30T01:51:47;11591.03;;;-149.77;100.00
60055;BME280;45930;53.514;55.904;2024-01-30T01:52:49;11591.03;;;-149.77;100.00
60055;BME280;45930;53.514;55.904;2024-01-30T01:53:50;12846.81;;;-149.77;100.00
60055;BME280;45930;53.514;55.904;2024-01-30T01:54:51;12846.81;;;-149.77;100.00
60055;BME280;45930;53.514;55.904;2024-01-30T01:55:53;12093.28;;;-149.77;100.00
60055;BME280;45930;53.514;55.904;2024-01-30T01:56:54;11842.16;;;-149.77;100.00
60055;BME280;45930;53.514;55.904;2024-01-30T01:57:55;11088.84;;;-149.77;100.00
60055;BME280;45930;53.514;55.904;2024-01-30T01:59:07;10335.69;;;-149.77;100.00
60055;BME280;45930;53.514;55.904;2024-01-30T02:00:09;10084.66;;;-149.77;100.00
60055;BME280;45930;53.514;55.904;2024-01-30T02:01:11;8578.84;;;-149.77;100.00
60055;BME280;45930;53.514;55.904;2024-01-30T02:02:14;8077.06;;;-149.77;100.00
60055;BME280;45930;53.514;55.904;2024-01-30T02:03:18;7826.19;;;-149.77;100.00
60055;BME280;45930;53.514;55.904;2024-01-30T02:04:21;6822.84;;;-149.77;100.00
60055;BME280;45930;53.514;55.904;2024-01-30T02:05:22;5819.75;;;-149.77;100.00
60055;BME280;45930;53.514;55.904;2024-01-30T02:06:24;4566.25;;;-149.77;100.00
60055;BME280;45930;53.514;55.904;2024-01-30T02:07:25;3814.34;;;-149.77;100.00
60055;BME280;45930;53.514;55.904;2024-01-30T02:08:25;2812.06;;;-149.77;100.00
60055;BME280;45930;53.514;55.904;2024-01-30T02:09:27;2060.50;;;-149.77;100.00
60055;BME280;45930;53.514;55.904;2024-01-30T02:10:30;1309.09;;;-149.77;100.00
60055;BME280;45930;53.514;55.904;2024-01-30T02:11:30;1309.09;;;-149.77;100.00
60055;BME280;45930;53.514;55.904;2024-01-30T02:12:32;1058.66;;;-149.77;100.00
60055;BME280;45930;53.514;55.904;2024-01-30T02:13:33;808.22;;;-149.77;100.00
60055;BME280;45930;53.514;55.904;2024-01-30T02:14:46;1058.66;;;-149.77;100.00
60055;BME280;45930;53.514;55.904;2024-01-30T02:15:53;1309.09;;;-149.77;100.00
60055;BME280;45930;53.514;55.904;2024-01-30T02:16:53;1559.53;;;-149.77;100.00
60055;BME280;45930;53.514;55.904;2024-01-30T02:17:54;2561.53;;;-149.77;100.00
60055;BME280;45930;53.514;55.904;2024-01-30T02:19:15;3313.16;;;-149.77;100.00
60055;BME280;45930;53.514;55.904;2024-01-30T02:20:16;4064.97;;;-149.77;100.00
60055;BME280;45930;53.514;55.904;2024-01-30T02:21:17;4566.25;;;-149.77;100.00
60055;BME280;45930;53.514;55.904;2024-01-30T02:22:19;5819.75;;;-149.77;100.00
60055;BME280;45930;53.514;55.904;2024-01-30T02:23:20;6822.84;;;-149.77;100.00
60055;BME280;45930;53.514;55.904;2024-01-30T02:24:24;7324.47;;;-149.77;100.00
60055;BME280;45930;53.514;55.904;2024-01-30T02:25:38;7324.47;;;-149.77;100.00
60055;BME280;45930;53.514;55.904;2024-01-30T02:26:38;7575.31;;;-149.77;100.00
60055;BME280;45930;53.514;55.904;2024-01-30T02:27:39;7324.47;;;-149.77;100.00
60055;BME280;45930;53.514;55.904;2024-01-30T02:28:40;7324.47;;;-149.77;100.00
60055;BME280;45930;53.514;55.904;2024-01-30T02:29:41;6572.03;;;-149.77;100.00
60055;BME280;45930;53.514;55.904;2024-01-30T02:30:45;6321.25;;;-149.77;100.00
60055;BME280;45930;53.514;55.904;2024-01-30T02:31:46;6321.25;;;-149.77;100.00
60055;BME280;45930;53.514;55.904;2024-01-30T02:32:47;6321.25;;;-149.77;100.00
60055;BME280;45930;53.514;55.904;2024-01-30T02:33:48;6070.50;;;-149.77;100.00
60055;BME280;45930;53.514;55.904;2024-01-30T02:34:48;6070.50;;;-149.77;100.00
60055;BME280;45930;53.514;55.904;2024-01-30T02:35:49;6321.25;;;-149.77;100.00
60055;BME280;45930;53.514;55.904;2024-01-30T02:36:50;6070.50;;;-149.77;100.00
60055;BME280;45930;53.514;55.904;2024-01-30T02:37:50;5819.75;;;-149.77;100.00
60055;BME280;45930;53.514;55.904;2024-01-30T02:38:51;5569.00;;;-149.77;100.00
60055;BME280;45930;53.514;55.904;2024-01-30T02:39:52;5569.00;;;-149.77;100.00
60055;BME280;45930;53.514;55.904;2024-01-30T02:40:53;5067.59;;;-149.77;100.00
60055;BME280;45930;53.514;55.904;2024-01-30T02:41:53;5067.59;;;-149.77;100.00
60055;BME280;45930;53.514;55.904;2024-01-30T02:42:55;5067.59;;;-149.77;100.00
60055;BME280;45930;53.514;55.904;2024-01-30T02:43:56;4816.91;;;-149.77;100.00
60055;BME280;45930;53.514;55.904;2024-01-30T02:44:57;4566.25;;;-149.77;100.00
60055;BME280;45930;53.514;55.904;2024-01-30T02:45:57;4566.25;;;-149.77;100.00
60055;BME280;45930;53.514;55.904;2024-01-30T02:47:00;4315.59;;;-149.77;100.00
60055;BME280;45930;53.514;55.904;2024-01-30T02:48:00;4315.59;;;-149.77;100.00
60055;BME280;45930;53.514;55.904;2024-01-30T02:49:01;4315.59;;;-149.77;100.00
60055;BME280;45930;53.514;55.904;2024-01-30T02:50:02;4566.25;;;-149.77;100.00
60055;BME280;45930;53.514;55.904;2024-01-30T02:51:03;4816.91;;;-149.77;100.00
60055;BME280;45930;53.514;55.904;2024-01-30T02:52:04;5067.59;;;-149.77;100.00
60055;BME280;45930;53.514;55.904;2024-01-30T02:53:05;5067.59;;;-149.77;100.00
60055;BME280;45930;53.514;55.904;2024-01-30T02:54:06;5067.59;;;-149.77;100.00
60055;BME280;45930;53.514;55.904;2024-01-30T02:55:07;5067.59;;;-149.77;100.00
60055;BME280;45930;53.514;55.904;2024-01-30T02:56:08;5318.31;;;-149.77;100.00
60055;BME280;45930;53.514;55.904;2024-01-30T02:57:10;5569.00;;;-149.77;100.00
60055;BME280;45930;53.514;55.904;2024-01-30T02:58:11;5819.75;;;-149.77;100.00
60055;BME280;45930;53.514;55.904;2024-01-30T02:59:11;6070.50;;;-149.77;100.00
60055;BME280;45930;53.514;55.904;2024-01-30T03:00:12;6321.25;;;-149.77;100.00
60055;BME280;45930;53.514;55.904;2024-01-30T03:01:13;6822.84;;;-149.77;100.00
60055;BME280;45930;53.514;55.904;2024-01-30T03:02:14;7073.66;;;-149.77;100.00
60055;BME280;45930;53.514;55.904;2024-01-30T03:03:15;7575.31;;;-149.77;100.00
60055;BME280;45930;53.514;55.904;2024-01-30T03:04:15;7575.31;;;-149.77;100.00
60055;BME280;45930;53.514;55.904;2024-01-30T03:05:16;7575.31;;;-149.77;100.00
60055;BME280;45930;53.514;55.904;2024-01-30T03:06:17;7575.31;;;-149.77;100.00
60055;BME280;45930;53.514;55.904;2024-01-30T03:07:20;7575.31;;;-149.77;100.00
60055;BME280;45930;53.514;55.904;2024-01-30T03:08:21;7324.47;;;-149.77;100.00
60055;BME280;45930;53.514;55.904;2024-01-30T03:09:21;7324.47;;;-149.77;100.00
60055;BME280;45930;53.514;55.904;2024-01-30T03:10:22;7073.66;;;-149.77;100.00
60055;BME280;45930;53.514;55.904;2024-01-30T03:11:23;7073.66;;;-149.77;100.00
60055;BME280;45930;53.514;55.904;2024-01-30T03:12:24;7073.66;;;-149.77;100.00
60055;BME280;45930;53.514;55.904;2024-01-30T03:13:24;6822.84;;;-149.77;100.00
60055;BME280;45930;53.514;55.904;2024-01-30T03:14:25;6822.84;;;-149.77;100.00
60055;BME280;45930;53.514;55.904;2024-01-30T03:15:26;6572.03;;;-149.77;100.00
60055;BME280;45930;53.514;55.904;2024-01-30T03:16:27;6572.03;;;-149.77;100.00
60055;BME280;45930;53.514;55.904;2024-01-30T03:17:28;6822.84;;;-149.77;100.00
60055;BME280;45930;53.514;55.904;2024-01-30T03:18:29;7073.66;;;-149.77;100.00
60055;BME280;45930;53.514;55.904;2024-01-30T03:19:29;7324.47;;;-149.77;100.00
60055;BME280;45930;53.514;55.904;2024-01-30T03:20:30;7575.31;;;-149.77;100.00
60055;BME280;45930;53.514;55.904;2024-01-30T03:21:32;7826.19;;;-149.77;100.00
60055;BME280;45930;53.514;55.904;2024-01-30T03:22:32;8327.94;;;-149.77;100.00
60055;BME280;45930;53.514;55.904;2024-01-30T03:23:33;8578.84;;;-149.77;100.00
60055;BME280;45930;53.514;55.904;2024-01-30T03:24:34;8327.94;;;-149.77;100.00
60055;BME280;45930;53.514;55.904;2024-01-30T03:25:34;8578.84;;;-149.77;100.00
60055;BME280;45930;53.514;55.904;2024-01-30T03:26:35;8327.94;;;-149.77;100.00
60055;BME280;45930;53.514;55.904;2024-01-30T03:27:36;8327.94;;;-149.77;100.00
60055;BME280;45930;53.514;55.904;2024-01-30T03:28:37;8327.94;;;-149.77;100.00
60055;BME280;45930;53.514;55.904;2024-01-30T03:29:37;8077.06;;;-149.77;100.00
60055;BME280;45930;53.514;55.904;2024-01-30T03:30:38;8327.94;;;-149.77;100.00
60055;BME280;45930;53.514;55.904;2024-01-30T03:31:39;8327.94;;;-149.77;100.00
60055;BME280;45930;53.514;55.904;2024-01-30T03:32:40;8327.94;;;-149.77;100.00
60055;BME280;45930;53.514;55.904;2024-01-30T03:33:40;8327.94;;;-149.77;100.00
60055;BME280;45930;53.514;55.904;2024-01-30T03:34:41;8578.84;;;-149.77;100.00
60055;BME280;45930;53.514;55.904;2024-01-30T03:35:42;8829.78;;;-149.77;100.00
60055;BME280;45930;53.514;55.904;2024-01-30T03:36:43;8578.84;;;-149.77;100.00
60055;BME280;45930;53.514;55.904;2024-01-30T03:37:44;8829.78;;;-149.77;100.00
60055;BME280;45930;53.514;55.904;2024-01-30T03:38:44;8578.84;;;-149.77;100.00
60055;BME280;45930;53.514;55.904;2024-01-30T03:39:45;8829.78;;;-149.77;100.00
60055;BME280;45930;53.514;55.904;2024-01-30T03:40:46;8578.84;;;-149.77;100.00
60055;BME280;45930;53.514;55.904;2024-01-30T03:41:46;8829.78;;;-149.77;100.00
60055;BME280;45930;53.514;55.904;2024-01-30T03:42:47;8578.84;;;-149.77;100.00
60055;BME280;45930;53.514;55.904;2024-01-30T03:43:48;8829.78;;;-149.77;100.00
60055;BME280;45930;53.514;55.904;2024-01-30T03:44:49;8829.78;;;-149.77;100.00
60055;BME280;45930;53.514;55.904;2024-01-30T03:45:52;8578.84;;;-149.77;100.00
60055;BME280;45930;53.514;55.904;2024-01-30T03:46:53;8578.84;;;-149.77;100.00
60055;BME280;45930;53.514;55.904;2024-01-30T03:47:53;8578.84;;;-149.77;100.00
60055;BME280;45930;53.514;55.904;2024-01-30T03:48:54;8578.84;;;-149.77;100.00
60055;BME280;45930;53.514;55.904;2024-01-30T03:49:55;8829.78;;;-149.77;100.00
60055;BME280;45930;53.514;55.904;2024-01-30T03:50:56;9080.72;;;-149.77;100.00
60055;BME280;45930;53.514;55.904;2024-01-30T03:51:57;9080.72;;;-149.77;100.00
60055;BME280;45930;53.514;55.904;2024-01-30T03:52:57;9080.72;;;-149.77;100.00
60055;BME280;45930;53.514;55.904;2024-01-30T03:53:58;8829.78;;;-149.77;100.00
60055;BME280;45930;53.514;55.904;2024-01-30T03:54:59;9080.72;;;-149.77;100.00
60055;BME280;45930;53.514;55.904;2024-01-30T03:56:00;8829.78;;;-149.77;100.00
60055;BME280;45930;53.514;55.904;2024-01-30T03:57:01;8829.78;;;-149.77;100.00
60055;BME280;45930;53.514;55.904;2024-01-30T03:58:01;8578.84;;;-149.77;100.00
60055;BME280;45930;53.514;55.904;2024-01-30T03:59:02;8829.78;;;-149.77;100.00
60055;BME280;45930;53.514;55.904;2024-01-30T04:00:04;8829.78;;;-149.77;100.00
60055;BME280;45930;53.514;55.904;2024-01-30T04:01:05;8578.84;;;-149.77;100.00
60055;BME280;45930;53.514;55.904;2024-01-30T04:02:06;8327.94;;;-149.77;100.00
60055;BME280;45930;53.514;55.904;2024-01-30T04:03:07;8077.06;;;-149.77;100.00
60055;BME280;45930;53.514;55.904;2024-01-30T04:04:07;8077.06;;;-149.77;100.00
60055;BME280;45930;53.514;55.904;2024-01-30T04:05:08;8327.94;;;-149.77;100.00
60055;BME280;45930;53.514;55.904;2024-01-30T04:06:09;8327.94;;;-149.77;100.00
60055;BME280;45930;53.514;55.904;2024-01-30T04:07:09;8829.78;;;-149.77;100.00
60055;BME280;45930;53.514;55.904;2024-01-30T04:08:10;9080.72;;;-149.77;100.00
60055;BME280;45930;53.514;55.904;2024-01-30T04:09:13;9080.72;;;-149.77;100.00
60055;BME280;45930;53.514;55.904;2024-01-30T04:10:15;9080.72;;;-149.77;100.00
60055;BME280;45930;53.514;55.904;2024-01-30T04:11:18;9331.69;;;-149.77;100.00
60055;BME280;45930;53.514;55.904;2024-01-30T04:12:20;9331.69;;;-149.77;100.00
60055;BME280;45930;53.514;55.904;2024-01-30T04:13:20;9582.66;;;-149.77;100.00
60055;BME280;45930;53.514;55.904;2024-01-30T04:14:21;9582.66;;;-149.77;100.00
60055;BME280;45930;53.514;55.904;2024-01-30T04:15:22;10084.66;;;-149.77;100.00
60055;BME280;45930;53.514;55.904;2024-01-30T04:16:23;9833.66;;;-149.77;100.00
60055;BME280;45930;53.514;55.904;2024-01-30T04:17:23;9833.66;;;-149.77;100.00
60055;BME280;45930;53.514;55.904;2024-01-30T04:18:24;10335.69;;;-149.77;100.00
60055;BME280;45930;53.514;55.904;2024-01-30T04:19:25;10084.66;;;-149.77;100.00
60055;BME280;45930;53.514;55.904;2024-01-30T04:20:26;9833.66;;;-149.77;100.00
60055;BME280;45930;53.514;55.904;2024-01-30T04:21:27;10084.66;;;-149.77;100.00
60055;BME280;45930;53.514;55.904;2024-01-30T04:22:28;10084.66;;;-149.77;100.00
60055;BME280;45930;53.514;55.904;2024-01-30T04:23:28;10084.66;;;-149.77;100.00
60055;BME280;45930;53.514;55.904;2024-01-30T04:24:29;10335.69;;;-149.77;100.00
60055;BME280;45930;53.514;55.904;2024-01-30T04:25:30;10335.69;;;-149.77;100.00
60055;BME280;45930;53.514;55.904;2024-01-30T04:26:30;10084.66;;;-149.77;100.00
60055;BME280;45930;53.514;55.904;2024-01-30T04:27:31;10586.72;;;-149.77;100.00
60055;BME280;45930;53.514;55.904;2024-01-30T04:28:32;10837.78;;;-149.77;100.00
60055;BME280;45930;53.514;55.904;2024-01-30T04:29:33;11088.84;;;-149.77;100.00
60055;BME280;45930;53.514;55.904;2024-01-30T04:30:34;11339.94;;;-149.77;100.00
60055;BME280;45930;53.514;55.904;2024-01-30T04:31:36;11842.16;;;-149.77;100.00
60055;BME280;45930;53.514;55.904;2024-01-30T04:32:37;11842.16;;;-149.77;100.00
60055;BME280;45930;53.514;55.904;2024-01-30T04:33:38;11842.16;;;-149.77;100.00
60055;BME280;45930;53.514;55.904;2024-01-30T04:34:38;11591.03;;;-149.77;100.00
60055;BME280;45930;53.514;55.904;2024-01-30T04:35:40;11591.03;;;-149.77;100.00
60055;BME280;45930;53.514;55.904;2024-01-30T04:36:44;11842.16;;;-149.77;100.00
60055;BME280;45930;53.514;55.904;2024-01-30T04:37:46;12093.28;;;-149.77;100.00
60055;BME280;45930;53.514;55.904;2024-01-30T04:38:46;12093.28;;;-149.77;100.00
60055;BME280;45930;53.514;55.904;2024-01-30T04:39:47;12846.81;;;-149.77;100.00
60055;BME280;45930;53.514;55.904;2024-01-30T04:40:48;13349.22;;;-149.77;100.00
60055;BME280;45930;53.514;55.904;2024-01-30T04:41:49;14102.97;;;-149.77;100.00
60055;BME280;45930;53.514;55.904;2024-01-30T04:42:50;14605.56;;;-149.77;100.00
60055;BME280;45930;53.514;55.904;2024-01-30T04:43:50;15108.22;;;-149.77;100.00
60055;BME280;45930;53.514;55.904;2024-01-30T04:44:51;15610.94;;;-149.77;100.00
60055;BME280;45930;53.514;55.904;2024-01-30T04:45:52;15862.31;;;-149.77;100.00
60055;BME280;45930;53.514;55.904;2024-01-30T04:46:54;16113.72;;;-149.77;100.00
60055;BME280;45930;53.514;55.904;2024-01-30T04:47:59;16616.56;;;-149.77;100.00
60055;BME280;45930;53.514;55.904;2024-01-30T04:49:00;16868.00;;;-149.77;100.00
60055;BME280;45930;53.514;55.904;2024-01-30T04:50:01;17370.94;;;-149.77;100.00
60055;BME280;45930;53.514;55.904;2024-01-30T04:51:08;17873.94;;;-149.77;100.00
60055;BME280;45930;53.514;55.904;2024-01-30T04:52:09;18125.47;;;-149.77;100.00
60055;BME280;45930;53.514;55.904;2024-01-30T04:53:10;18628.56;;;-149.77;100.00
60055;BME280;45930;53.514;55.904;2024-01-30T04:54:11;19131.75;;;-149.77;100.00
60055;BME280;45930;53.514;55.904;2024-01-30T04:55:12;19634.97;;;-149.77;100.00
60055;BME280;45930;53.514;55.904;2024-01-30T04:56:13;20893.34;;;-149.77;100.00
60055;BME280;45930;53.514;55.904;2024-01-30T04:57:14;21396.81;;;-149.77;100.00
60055;BME280;45930;53.514;55.904;2024-01-30T04:58:14;22152.13;;;-149.77;100.00
60055;BME280;45930;53.514;55.904;2024-01-30T04:59:15;22655.75;;;-149.77;100.00
60055;BME280;45930;53.514;55.904;2024-01-30T05:00:16;23663.19;;;-149.77;100.00
60055;BME280;45930;53.514;55.904;2024-01-30T05:01:17;25174.84;;;-149.77;100.00
60055;BME280;45930;53.514;55.904;2024-01-30T05:02:18;26939.19;;;-149.77;100.00
60055;BME280;45930;53.514;55.904;2024-01-30T05:03:23;28199.91;;;-149.77;100.00
60055;BME280;45930;53.514;55.904;2024-01-30T05:04:24;29208.78;;;-149.77;100.00
60055;BME280;45930;53.514;55.904;2024-01-30T05:05:25;29713.31;;;-149.77;100.00
60055;BME280;45930;53.514;55.904;2024-01-30T05:06:27;31325.91;;;-149.77;100.00
60055;BME280;45930;53.514;55.904;2024-01-30T05:07:27;32507.19;;;-149.77;100.00
60055;BME280;45930;53.514;55.904;2024-01-30T05:08:28;33375.13;;;-149.77;100.00
60055;BME280;45930;53.514;55.904;2024-01-30T05:09:30;35036.59;;;-149.77;100.00
60055;BME280;45930;53.514;55.904;2024-01-30T05:10:31;35905.09;;;-149.77;100.00